sensor_id;sensor_type;location;lat;lon;timestamp;P1;durP1;ratioP1;P2;durP2;ratioP2
75628;SDS011;64213;46.452;16.994;2023-03-31T00:01:27;9.48;;;2.70;;
75628;SDS011;64213;46.452;16.994;2023-03-31T00:04:30;8.38;;;3.00;;
75628;SDS011;64213;46.452;16.994;2023-03-31T00:07:33;8.82;;;2.87;;
75628;SDS011;64213;46.452;16.994;2023-03-31T00:10:42;8.73;;;3.03;;
75628;SDS011;64213;46.452;16.994;2023-03-31T00:13:46;6.72;;;1.90;;
75628;SDS011;64213;46.452;16.994;2023-03-31T00:16:49;7.28;;;2.37;;
75628;SDS011;64213;46.452;16.994;2023-03-31T00:19:51;8.30;;;3.00;;
75628;SDS011;64213;46.452;16.994;2023-03-31T00:22:54;7.95;;;2.70;;
75628;SDS011;64213;46.452;16.994;2023-03-31T00:25:58;9.97;;;2.67;;
75628;SDS011;64213;46.452;16.994;2023-03-31T00:29:01;9.57;;;2.75;;
75628;SDS011;64213;46.452;16.994;2023-03-31T00:32:04;9.32;;;2.87;;
75628;SDS011;64213;46.452;16.994;2023-03-31T00:35:07;8.98;;;3.08;;
75628;SDS011;64213;46.452;16.994;2023-03-31T00:38:09;8.73;;;3.22;;
75628;SDS011;64213;46.452;16.994;2023-03-31T00:41:14;9.23;;;2.90;;
75628;SDS011;64213;46.452;16.994;2023-03-31T00:44:18;10.43;;;3.12;;
75628;SDS011;64213;46.452;16.994;2023-03-31T00:47:26;7.78;;;3.17;;
75628;SDS011;64213;46.452;16.994;2023-03-31T00:50:34;10.35;;;2.80;;
75628;SDS011;64213;46.452;16.994;2023-03-31T00:53:59;7.72;;;2.75;;
75628;SDS011;64213;46.452;16.994;2023-03-31T00:57:05;10.13;;;2.27;;
75628;SDS011;64213;46.452;16.994;2023-03-31T01:00:10;7.40;;;2.40;;
75628;SDS011;64213;46.452;16.994;2023-03-31T01:03:17;7.25;;;2.62;;
75628;SDS011;64213;46.452;16.994;2023-03-31T01:06:23;8.05;;;2.33;;
75628;SDS011;64213;46.452;16.994;2023-03-31T01:09:31;9.85;;;2.53;;
75628;SDS011;64213;46.452;16.994;2023-03-31T01:12:40;7.70;;;2.23;;
75628;SDS011;64213;46.452;16.994;2023-03-31T01:15:46;8.15;;;2.28;;
75628;SDS011;64213;46.452;16.994;2023-03-31T01:18:49;7.78;;;2.20;;
75628;SDS011;64213;46.452;16.994;2023-03-31T01:22:14;8.95;;;2.78;;
75628;SDS011;64213;46.452;16.994;2023-03-31T01:25:44;7.62;;;2.35;;
75628;SDS011;64213;46.452;16.994;2023-03-31T01:32:48;11.40;;;2.37;;
75628;SDS011;64213;46.452;16.994;2023-03-31T01:39:56;9.52;;;2.60;;
75628;SDS011;64213;46.452;16.994;2023-03-31T01:47:33;7.17;;;2.00;;
75628;SDS011;64213;46.452;16.994;2023-03-31T01:50:57;10.52;;;2.50;;
75628;SDS011;64213;46.452;16.994;2023-03-31T02:00:34;9.32;;;2.55;;
75628;SDS011;64213;46.452;16.994;2023-03-31T02:03:44;8.53;;;2.27;;
75628;SDS011;64213;46.452;16.994;2023-03-31T02:06:57;9.10;;;2.10;;
75628;SDS011;64213;46.452;16.994;2023-03-31T02:10:05;7.80;;;2.15;;
75628;SDS011;64213;46.452;16.994;2023-03-31T02:13:10;8.13;;;2.75;;
75628;SDS011;64213;46.452;16.994;2023-03-31T02:16:18;11.50;;;3.00;;
75628;SDS011;64213;46.452;16.994;2023-03-31T02:19:26;10.27;;;2.07;;
75628;SDS011;64213;46.452;16.994;2023-03-31T02:22:34;9.30;;;2.70;;
75628;SDS011;64213;46.452;16.994;2023-03-31T02:25:41;8.93;;;2.80;;
75628;SDS011;64213;46.452;16.994;2023-03-31T02:28:56;8.90;;;2.42;;
75628;SDS011;64213;46.452;16.994;2023-03-31T02:35:05;8.73;;;2.57;;
75628;SDS011;64213;46.452;16.994;2023-03-31T02:38:10;8.32;;;2.67;;
75628;SDS011;64213;46.452;16.994;2023-03-31T02:41:13;7.40;;;2.40;;
75628;SDS011;64213;46.452;16.994;2023-03-31T02:44:15;9.95;;;2.70;;
75628;SDS011;64213;46.452;16.994;2023-03-31T02:47:18;7.60;;;2.50;;
75628;SDS011;64213;46.452;16.994;2023-03-31T02:50:23;7.67;;;2.60;;
75628;SDS011;64213;46.452;16.994;2023-03-31T03:07:12;8.50;;;2.60;;
75628;SDS011;64213;46.452;16.994;2023-03-31T03:13:33;9.50;;;2.60;;
75628;SDS011;64213;46.452;16.994;2023-03-31T03:16:38;9.88;;;2.72;;
75628;SDS011;64213;46.452;16.994;2023-03-31T03:19:49;8.15;;;2.85;;
75628;SDS011;64213;46.452;16.994;2023-03-31T03:22:52;9.13;;;3.20;;
75628;SDS011;64213;46.452;16.994;2023-03-31T03:25:54;10.13;;;2.58;;
75628;SDS011;64213;46.452;16.994;2023-03-31T03:28:56;10.35;;;2.80;;
75628;SDS011;64213;46.452;16.994;2023-03-31T03:31:58;7.43;;;2.70;;
75628;SDS011;64213;46.452;16.994;2023-03-31T03:35:01;28.45;;;11.75;;
75628;SDS011;64213;46.452;16.994;2023-03-31T03:38:06;9.20;;;2.70;;
75628;SDS011;64213;46.452;16.994;2023-03-31T03:41:08;8.30;;;2.25;;
75628;SDS011;64213;46.452;16.994;2023-03-31T03:44:11;7.80;;;2.80;;
75628;SDS011;64213;46.452;16.994;2023-03-31T03:47:13;7.85;;;2.72;;
75628;SDS011;64213;46.452;16.994;2023-03-31T03:50:15;8.43;;;2.75;;
75628;SDS011;64213;46.452;16.994;2023-03-31T03:53:18;8.70;;;2.87;;
75628;SDS011;64213;46.452;16.994;2023-03-31T03:56:21;9.13;;;2.62;;
75628;SDS011;64213;46.452;16.994;2023-03-31T03:59:23;8.80;;;3.45;;
75628;SDS011;64213;46.452;16.994;2023-03-31T04:02:25;9.02;;;3.45;;
75628;SDS011;64213;46.452;16.994;2023-03-31T04:05:29;8.68;;;3.17;;
75628;SDS011;64213;46.452;16.994;2023-03-31T04:08:31;10.43;;;3.80;;
75628;SDS011;64213;46.452;16.994;2023-03-31T04:11:33;8.27;;;3.17;;
75628;SDS011;64213;46.452;16.994;2023-03-31T04:14:36;9.02;;;3.22;;
75628;SDS011;64213;46.452;16.994;2023-03-31T04:17:38;9.30;;;3.65;;
75628;SDS011;64213;46.452;16.994;2023-03-31T04:20:40;12.60;;;3.80;;
75628;SDS011;64213;46.452;16.994;2023-03-31T04:23:42;9.90;;;3.10;;
75628;SDS011;64213;46.452;16.994;2023-03-31T04:26:47;9.45;;;2.78;;
75628;SDS011;64213;46.452;16.994;2023-03-31T04:29:52;10.35;;;3.30;;
75628;SDS011;64213;46.452;16.994;2023-03-31T04:32:58;9.13;;;3.35;;
75628;SDS011;64213;46.452;16.994;2023-03-31T04:36:02;9.38;;;3.35;;
75628;SDS011;64213;46.452;16.994;2023-03-31T04:39:08;9.37;;;3.37;;
75628;SDS011;64213;46.452;16.994;2023-03-31T04:42:13;9.63;;;3.12;;
75628;SDS011;64213;46.452;16.994;2023-03-31T04:45:15;10.70;;;3.60;;
75628;SDS011;64213;46.452;16.994;2023-03-31T04:48:18;10.13;;;3.05;;
75628;SDS011;64213;46.452;16.994;2023-03-31T04:51:20;13.77;;;4.65;;
75628;SDS011;64213;46.452;16.994;2023-03-31T04:54:22;10.07;;;3.00;;
75628;SDS011;64213;46.452;16.994;2023-03-31T04:57:24;11.60;;;3.78;;
75628;SDS011;64213;46.452;16.994;2023-03-31T05:00:27;8.25;;;2.80;;
75628;SDS011;64213;46.452;16.994;2023-03-31T05:03:29;9.32;;;3.25;;
75628;SDS011;64213;46.452;16.994;2023-03-31T05:06:31;11.10;;;4.03;;
75628;SDS011;64213;46.452;16.994;2023-03-31T05:09:34;16.30;;;4.10;;
75628;SDS011;64213;46.452;16.994;2023-03-31T05:12:36;13.05;;;4.07;;
75628;SDS011;64213;46.452;16.994;2023-03-31T05:15:39;10.77;;;3.70;;
75628;SDS011;64213;46.452;16.994;2023-03-31T05:18:41;10.00;;;4.00;;
75628;SDS011;64213;46.452;16.994;2023-03-31T05:21:43;9.25;;;3.80;;
75628;SDS011;64213;46.452;16.994;2023-03-31T05:24:46;10.33;;;4.10;;
75628;SDS011;64213;46.452;16.994;2023-03-31T05:27:48;11.80;;;3.58;;
75628;SDS011;64213;46.452;16.994;2023-03-31T05:30:51;10.27;;;3.47;;
75628;SDS011;64213;46.452;16.994;2023-03-31T05:33:54;7.15;;;2.37;;
75628;SDS011;64213;46.452;16.994;2023-03-31T05:36:56;9.77;;;3.40;;
75628;SDS011;64213;46.452;16.994;2023-03-31T05:39:59;8.67;;;2.70;;
75628;SDS011;64213;46.452;16.994;2023-03-31T05:43:01;8.43;;;2.53;;
75628;SDS011;64213;46.452;16.994;2023-03-31T05:46:04;8.65;;;2.58;;
75628;SDS011;64213;46.452;16.994;2023-03-31T05:49:07;8.43;;;2.42;;
75628;SDS011;64213;46.452;16.994;2023-03-31T05:52:11;9.40;;;2.35;;
75628;SDS011;64213;46.452;16.994;2023-03-31T05:55:13;8.83;;;2.80;;
75628;SDS011;64213;46.452;16.994;2023-03-31T05:58:15;7.60;;;1.98;;
75628;SDS011;64213;46.452;16.994;2023-03-31T06:01:17;7.68;;;2.15;;
75628;SDS011;64213;46.452;16.994;2023-03-31T06:04:24;8.55;;;2.03;;
75628;SDS011;64213;46.452;16.994;2023-03-31T06:07:26;8.00;;;2.22;;
75628;SDS011;64213;46.452;16.994;2023-03-31T06:10:28;8.20;;;1.93;;
75628;SDS011;64213;46.452;16.994;2023-03-31T06:13:31;7.12;;;1.37;;
75628;SDS011;64213;46.452;16.994;2023-03-31T06:16:33;7.03;;;2.00;;
75628;SDS011;64213;46.452;16.994;2023-03-31T06:19:35;8.15;;;2.20;;
75628;SDS011;64213;46.452;16.994;2023-03-31T06:22:37;8.57;;;2.15;;
75628;SDS011;64213;46.452;16.994;2023-03-31T06:25:39;8.87;;;2.10;;
75628;SDS011;64213;46.452;16.994;2023-03-31T06:28:51;6.70;;;1.77;;
75628;SDS011;64213;46.452;16.994;2023-03-31T06:31:54;7.25;;;2.00;;
75628;SDS011;64213;46.452;16.994;2023-03-31T06:34:56;8.18;;;2.55;;
75628;SDS011;64213;46.452;16.994;2023-03-31T06:37:58;6.37;;;1.48;;
75628;SDS011;64213;46.452;16.994;2023-03-31T06:41:01;6.43;;;1.47;;
75628;SDS011;64213;46.452;16.994;2023-03-31T06:44:03;6.85;;;2.08;;
75628;SDS011;64213;46.452;16.994;2023-03-31T06:47:05;6.43;;;1.60;;
75628;SDS011;64213;46.452;16.994;2023-03-31T06:50:08;6.87;;;1.73;;
75628;SDS011;64213;46.452;16.994;2023-03-31T06:53:11;10.35;;;2.22;;
75628;SDS011;64213;46.452;16.994;2023-03-31T06:56:13;8.33;;;2.10;;
75628;SDS011;64213;46.452;16.994;2023-03-31T06:59:16;7.20;;;1.55;;
75628;SDS011;64213;46.452;16.994;2023-03-31T07:02:20;6.70;;;1.90;;
75628;SDS011;64213;46.452;16.994;2023-03-31T07:05:22;7.05;;;1.40;;
75628;SDS011;64213;46.452;16.994;2023-03-31T07:08:29;6.87;;;1.55;;
75628;SDS011;64213;46.452;16.994;2023-03-31T07:11:32;6.03;;;1.23;;
75628;SDS011;64213;46.452;16.994;2023-03-31T07:14:34;6.43;;;1.33;;
75628;SDS011;64213;46.452;16.994;2023-03-31T07:17:36;7.45;;;1.77;;
75628;SDS011;64213;46.452;16.994;2023-03-31T07:20:47;7.65;;;1.30;;
75628;SDS011;64213;46.452;16.994;2023-03-31T07:23:51;6.65;;;1.45;;
75628;SDS011;64213;46.452;16.994;2023-03-31T07:26:53;7.27;;;1.50;;
75628;SDS011;64213;46.452;16.994;2023-03-31T07:29:55;4.12;;;1.02;;
75628;SDS011;64213;46.452;16.994;2023-03-31T07:32:58;5.43;;;1.40;;
75628;SDS011;64213;46.452;16.994;2023-03-31T07:36:03;4.25;;;1.00;;
75628;SDS011;64213;46.452;16.994;2023-03-31T07:39:13;4.68;;;1.20;;
75628;SDS011;64213;46.452;16.994;2023-03-31T07:42:15;4.37;;;1.07;;
75628;SDS011;64213;46.452;16.994;2023-03-31T07:45:19;5.50;;;1.30;;
75628;SDS011;64213;46.452;16.994;2023-03-31T07:48:22;5.00;;;1.30;;
75628;SDS011;64213;46.452;16.994;2023-03-31T07:51:25;5.37;;;0.98;;
75628;SDS011;64213;46.452;16.994;2023-03-31T07:54:28;5.87;;;1.45;;
75628;SDS011;64213;46.452;16.994;2023-03-31T07:57:30;6.47;;;1.20;;
75628;SDS011;64213;46.452;16.994;2023-03-31T08:00:33;8.73;;;1.23;;
75628;SDS011;64213;46.452;16.994;2023-03-31T08:03:35;5.15;;;1.20;;
75628;SDS011;64213;46.452;16.994;2023-03-31T08:06:37;7.05;;;1.60;;
75628;SDS011;64213;46.452;16.994;2023-03-31T08:09:42;5.25;;;1.30;;
75628;SDS011;64213;46.452;16.994;2023-03-31T08:12:45;6.27;;;1.13;;
75628;SDS011;64213;46.452;16.994;2023-03-31T08:15:48;4.68;;;1.12;;
75628;SDS011;64213;46.452;16.994;2023-03-31T08:18:50;7.32;;;1.67;;
75628;SDS011;64213;46.452;16.994;2023-03-31T08:21:52;5.05;;;1.45;;
75628;SDS011;64213;46.452;16.994;2023-03-31T08:24:54;6.03;;;1.33;;
75628;SDS011;64213;46.452;16.994;2023-03-31T08:27:56;4.53;;;1.10;;
75628;SDS011;64213;46.452;16.994;2023-03-31T08:31:05;4.90;;;1.23;;
75628;SDS011;64213;46.452;16.994;2023-03-31T08:34:08;7.05;;;1.98;;
75628;SDS011;64213;46.452;16.994;2023-03-31T08:37:10;7.45;;;1.80;;
75628;SDS011;64213;46.452;16.994;2023-03-31T08:40:13;7.25;;;1.55;;
75628;SDS011;64213;46.452;16.994;2023-03-31T08:43:22;5.80;;;1.23;;
75628;SDS011;64213;46.452;16.994;2023-03-31T08:46:29;7.53;;;1.60;;
75628;SDS011;64213;46.452;16.994;2023-03-31T08:49:38;6.35;;;1.50;;
75628;SDS011;64213;46.452;16.994;2023-03-31T08:52:49;7.30;;;1.65;;
75628;SDS011;64213;46.452;16.994;2023-03-31T08:55:57;6.47;;;1.52;;
75628;SDS011;64213;46.452;16.994;2023-03-31T08:59:00;5.10;;;1.10;;
75628;SDS011;64213;46.452;16.994;2023-03-31T09:09:02;6.78;;;1.50;;
75628;SDS011;64213;46.452;16.994;2023-03-31T09:12:13;7.53;;;1.83;;
75628;SDS011;64213;46.452;16.994;2023-03-31T09:15:24;6.10;;;1.20;;
75628;SDS011;64213;46.452;16.994;2023-03-31T09:18:33;8.57;;;1.75;;
75628;SDS011;64213;46.452;16.994;2023-03-31T09:21:42;8.27;;;2.03;;
75628;SDS011;64213;46.452;16.994;2023-03-31T09:25:34;6.05;;;1.50;;
75628;SDS011;64213;46.452;16.994;2023-03-31T09:28:18;6.93;;;1.50;;
75628;SDS011;64213;46.452;16.994;2023-03-31T09:31:22;6.93;;;1.30;;
75628;SDS011;64213;46.452;16.994;2023-03-31T09:34:29;6.20;;;1.20;;
75628;SDS011;64213;46.452;16.994;2023-03-31T09:37:34;8.65;;;2.30;;
75628;SDS011;64213;46.452;16.994;2023-03-31T09:40:36;7.87;;;2.12;;
75628;SDS011;64213;46.452;16.994;2023-03-31T09:43:39;8.05;;;2.17;;
75628;SDS011;64213;46.452;16.994;2023-03-31T09:46:42;8.60;;;1.70;;
75628;SDS011;64213;46.452;16.994;2023-03-31T09:49:45;10.32;;;2.70;;
75628;SDS011;64213;46.452;16.994;2023-03-31T09:52:55;10.38;;;2.70;;
75628;SDS011;64213;46.452;16.994;2023-03-31T09:56:00;6.55;;;1.45;;
75628;SDS011;64213;46.452;16.994;2023-03-31T09:59:05;5.87;;;1.60;;
75628;SDS011;64213;46.452;16.994;2023-03-31T10:02:20;7.77;;;2.10;;
75628;SDS011;64213;46.452;16.994;2023-03-31T10:05:31;6.97;;;1.70;;
75628;SDS011;64213;46.452;16.994;2023-03-31T10:12:07;6.97;;;1.80;;
75628;SDS011;64213;46.452;16.994;2023-03-31T10:15:22;5.78;;;1.77;;
75628;SDS011;64213;46.452;16.994;2023-03-31T10:18:35;7.03;;;1.90;;
75628;SDS011;64213;46.452;16.994;2023-03-31T10:21:40;7.60;;;2.20;;
75628;SDS011;64213;46.452;16.994;2023-03-31T10:24:48;6.03;;;1.98;;
75628;SDS011;64213;46.452;16.994;2023-03-31T10:27:52;7.60;;;2.03;;
75628;SDS011;64213;46.452;16.994;2023-03-31T10:30:57;6.78;;;1.75;;
75628;SDS011;64213;46.452;16.994;2023-03-31T10:34:05;6.43;;;1.70;;
75628;SDS011;64213;46.452;16.994;2023-03-31T10:40:18;7.35;;;1.83;;
75628;SDS011;64213;46.452;16.994;2023-03-31T10:43:34;7.75;;;1.80;;
75628;SDS011;64213;46.452;16.994;2023-03-31T10:46:48;8.20;;;2.08;;
75628;SDS011;64213;46.452;16.994;2023-03-31T10:49:56;7.10;;;1.90;;
75628;SDS011;64213;46.452;16.994;2023-03-31T10:53:05;7.20;;;1.77;;
75628;SDS011;64213;46.452;16.994;2023-03-31T11:06:21;7.27;;;1.53;;
75628;SDS011;64213;46.452;16.994;2023-03-31T11:13:24;8.05;;;1.75;;
75628;SDS011;64213;46.452;16.994;2023-03-31T11:20:12;8.02;;;1.83;;
75628;SDS011;64213;46.452;16.994;2023-03-31T11:26:43;6.57;;;1.95;;
75628;SDS011;64213;46.452;16.994;2023-03-31T11:30:06;7.93;;;1.98;;
75628;SDS011;64213;46.452;16.994;2023-03-31T11:36:39;7.12;;;1.92;;
75628;SDS011;64213;46.452;16.994;2023-03-31T11:46:18;6.75;;;1.87;;
75628;SDS011;64213;46.452;16.994;2023-03-31T11:49:31;6.62;;;1.77;;
75628;SDS011;64213;46.452;16.994;2023-03-31T11:52:41;7.10;;;1.77;;
75628;SDS011;64213;46.452;16.994;2023-03-31T11:55:57;5.03;;;1.20;;
75628;SDS011;64213;46.452;16.994;2023-03-31T11:59:03;7.55;;;1.90;;
75628;SDS011;64213;46.452;16.994;2023-03-31T12:05:16;6.93;;;1.58;;
75628;SDS011;64213;46.452;16.994;2023-03-31T12:15:02;6.22;;;1.45;;
75628;SDS011;64213;46.452;16.994;2023-03-31T12:21:15;6.50;;;1.65;;
75628;SDS011;64213;46.452;16.994;2023-03-31T12:24:18;5.82;;;1.60;;
75628;SDS011;64213;46.452;16.994;2023-03-31T12:30:41;6.50;;;1.67;;
75628;SDS011;64213;46.452;16.994;2023-03-31T12:33:46;8.00;;;1.70;;
75628;SDS011;64213;46.452;16.994;2023-03-31T12:41:03;5.97;;;1.70;;
75628;SDS011;64213;46.452;16.994;2023-03-31T12:47:44;9.40;;;1.75;;
75628;SDS011;64213;46.452;16.994;2023-03-31T13:01:33;6.43;;;1.23;;
75628;SDS011;64213;46.452;16.994;2023-03-31T13:04:35;6.82;;;1.30;;
75628;SDS011;64213;46.452;16.994;2023-03-31T13:07:38;13.57;;;1.92;;
75628;SDS011;64213;46.452;16.994;2023-03-31T13:10:57;7.62;;;1.27;;
75628;SDS011;64213;46.452;16.994;2023-03-31T13:14:01;7.55;;;1.40;;
75628;SDS011;64213;46.452;16.994;2023-03-31T13:17:34;6.63;;;1.20;;
75628;SDS011;64213;46.452;16.994;2023-03-31T13:20:38;6.60;;;1.33;;
75628;SDS011;64213;46.452;16.994;2023-03-31T13:23:43;6.90;;;1.30;;
75628;SDS011;64213;46.452;16.994;2023-03-31T13:26:50;9.40;;;1.55;;
75628;SDS011;64213;46.452;16.994;2023-03-31T13:30:03;5.28;;;1.33;;
75628;SDS011;64213;46.452;16.994;2023-03-31T13:33:10;6.07;;;1.13;;
75628;SDS011;64213;46.452;16.994;2023-03-31T13:36:30;6.03;;;1.23;;
75628;SDS011;64213;46.452;16.994;2023-03-31T13:40:04;4.90;;;1.10;;
75628;SDS011;64213;46.452;16.994;2023-03-31T13:43:12;4.60;;;1.05;;
75628;SDS011;64213;46.452;16.994;2023-03-31T14:06:58;6.73;;;1.20;;
75628;SDS011;64213;46.452;16.994;2023-03-31T14:10:20;8.43;;;1.40;;
75628;SDS011;64213;46.452;16.994;2023-03-31T14:13:28;5.55;;;1.30;;
75628;SDS011;64213;46.452;16.994;2023-03-31T14:16:31;6.70;;;0.90;;
75628;SDS011;64213;46.452;16.994;2023-03-31T14:19:49;7.55;;;1.60;;
75628;SDS011;64213;46.452;16.994;2023-03-31T14:26:41;8.38;;;1.35;;
75628;SDS011;64213;46.452;16.994;2023-03-31T14:29:56;6.90;;;1.42;;
75628;SDS011;64213;46.452;16.994;2023-03-31T14:36:51;6.78;;;1.77;;
75628;SDS011;64213;46.452;16.994;2023-03-31T14:39:59;6.80;;;1.37;;
75628;SDS011;64213;46.452;16.994;2023-03-31T14:43:04;8.82;;;1.42;;
75628;SDS011;64213;46.452;16.994;2023-03-31T14:46:07;8.05;;;1.33;;
75628;SDS011;64213;46.452;16.994;2023-03-31T14:52:30;5.68;;;1.20;;
75628;SDS011;64213;46.452;16.994;2023-03-31T14:55:34;4.87;;;1.00;;
75628;SDS011;64213;46.452;16.994;2023-03-31T14:58:41;5.12;;;0.90;;
75628;SDS011;64213;46.452;16.994;2023-03-31T15:01:45;7.40;;;1.58;;
75628;SDS011;64213;46.452;16.994;2023-03-31T15:04:49;7.60;;;1.52;;
75628;SDS011;64213;46.452;16.994;2023-03-31T15:07:55;7.10;;;1.67;;
75628;SDS011;64213;46.452;16.994;2023-03-31T15:11:07;5.77;;;1.40;;
75628;SDS011;64213;46.452;16.994;2023-03-31T15:14:14;5.65;;;1.10;;
75628;SDS011;64213;46.452;16.994;2023-03-31T15:17:29;5.68;;;1.35;;
75628;SDS011;64213;46.452;16.994;2023-03-31T15:20:38;5.80;;;1.10;;
75628;SDS011;64213;46.452;16.994;2023-03-31T15:23:42;8.43;;;2.12;;
75628;SDS011;64213;46.452;16.994;2023-03-31T15:29:46;6.45;;;1.48;;
75628;SDS011;64213;46.452;16.994;2023-03-31T15:32:52;6.43;;;1.50;;
75628;SDS011;64213;46.452;16.994;2023-03-31T15:36:15;7.53;;;1.12;;
75628;SDS011;64213;46.452;16.994;2023-03-31T15:39:17;8.07;;;1.77;;
75628;SDS011;64213;46.452;16.994;2023-03-31T15:42:19;5.10;;;1.07;;
75628;SDS011;64213;46.452;16.994;2023-03-31T15:45:35;6.70;;;1.62;;
75628;SDS011;64213;46.452;16.994;2023-03-31T15:48:49;7.68;;;1.60;;
75628;SDS011;64213;46.452;16.994;2023-03-31T15:51:56;8.40;;;1.30;;
75628;SDS011;64213;46.452;16.994;2023-03-31T15:55:01;10.32;;;2.00;;
75628;SDS011;64213;46.452;16.994;2023-03-31T15:58:53;5.93;;;1.30;;
75628;SDS011;64213;46.452;16.994;2023-03-31T16:01:57;6.43;;;1.37;;
75628;SDS011;64213;46.452;16.994;2023-03-31T16:05:02;10.05;;;1.55;;
75628;SDS011;64213;46.452;16.994;2023-03-31T16:08:15;9.55;;;1.77;;
75628;SDS011;64213;46.452;16.994;2023-03-31T16:11:35;12.05;;;1.87;;
75628;SDS011;64213;46.452;16.994;2023-03-31T16:14:45;6.87;;;2.00;;
75628;SDS011;64213;46.452;16.994;2023-03-31T16:18:09;7.35;;;1.30;;
75628;SDS011;64213;46.452;16.994;2023-03-31T16:21:26;9.00;;;2.00;;
75628;SDS011;64213;46.452;16.994;2023-03-31T16:24:34;6.72;;;2.20;;
75628;SDS011;64213;46.452;16.994;2023-03-31T16:27:40;7.03;;;1.92;;
75628;SDS011;64213;46.452;16.994;2023-03-31T16:30:46;6.53;;;1.60;;
75628;SDS011;64213;46.452;16.994;2023-03-31T16:33:52;8.30;;;1.70;;
75628;SDS011;64213;46.452;16.994;2023-03-31T16:36:57;9.50;;;2.40;;
75628;SDS011;64213;46.452;16.994;2023-03-31T16:40:00;9.15;;;2.10;;
75628;SDS011;64213;46.452;16.994;2023-03-31T16:43:08;10.75;;;1.90;;
75628;SDS011;64213;46.452;16.994;2023-03-31T16:46:16;13.50;;;2.00;;
75628;SDS011;64213;46.452;16.994;2023-03-31T16:49:19;12.27;;;2.70;;
75628;SDS011;64213;46.452;16.994;2023-03-31T16:52:22;9.15;;;2.00;;
75628;SDS011;64213;46.452;16.994;2023-03-31T16:55:24;8.45;;;2.50;;
75628;SDS011;64213;46.452;16.994;2023-03-31T16:58:26;7.07;;;2.15;;
75628;SDS011;64213;46.452;16.994;2023-03-31T17:01:32;9.63;;;1.73;;
75628;SDS011;64213;46.452;16.994;2023-03-31T17:04:35;8.10;;;1.42;;
75628;SDS011;64213;46.452;16.994;2023-03-31T17:07:37;8.63;;;1.90;;
75628;SDS011;64213;46.452;16.994;2023-03-31T17:10:40;6.50;;;1.60;;
75628;SDS011;64213;46.452;16.994;2023-03-31T17:13:43;9.00;;;1.90;;
75628;SDS011;64213;46.452;16.994;2023-03-31T17:16:47;7.40;;;1.97;;
75628;SDS011;64213;46.452;16.994;2023-03-31T17:19:50;6.15;;;1.15;;
75628;SDS011;64213;46.452;16.994;2023-03-31T17:22:53;6.18;;;1.40;;
75628;SDS011;64213;46.452;16.994;2023-03-31T17:25:57;7.50;;;1.42;;
75628;SDS011;64213;46.452;16.994;2023-03-31T17:28:59;4.75;;;1.10;;
75628;SDS011;64213;46.452;16.994;2023-03-31T17:32:02;7.27;;;1.93;;
75628;SDS011;64213;46.452;16.994;2023-03-31T17:35:05;8.00;;;2.00;;
75628;SDS011;64213;46.452;16.994;2023-03-31T17:38:08;9.45;;;2.50;;
75628;SDS011;64213;46.452;16.994;2023-03-31T17:41:13;7.18;;;1.80;;
75628;SDS011;64213;46.452;16.994;2023-03-31T17:44:19;6.25;;;1.40;;
75628;SDS011;64213;46.452;16.994;2023-03-31T17:47:22;8.50;;;1.57;;
75628;SDS011;64213;46.452;16.994;2023-03-31T17:50:25;7.20;;;1.37;;
75628;SDS011;64213;46.452;16.994;2023-03-31T17:53:28;8.32;;;2.17;;
75628;SDS011;64213;46.452;16.994;2023-03-31T17:56:33;9.95;;;1.60;;
75628;SDS011;64213;46.452;16.994;2023-03-31T17:59:36;6.35;;;1.60;;
75628;SDS011;64213;46.452;16.994;2023-03-31T18:02:39;7.50;;;1.43;;
75628;SDS011;64213;46.452;16.994;2023-03-31T18:05:43;6.18;;;1.52;;
75628;SDS011;64213;46.452;16.994;2023-03-31T18:08:46;5.20;;;1.20;;
75628;SDS011;64213;46.452;16.994;2023-03-31T18:11:49;6.25;;;1.42;;
75628;SDS011;64213;46.452;16.994;2023-03-31T18:14:52;6.60;;;1.50;;
75628;SDS011;64213;46.452;16.994;2023-03-31T18:17:55;7.60;;;1.67;;
75628;SDS011;64213;46.452;16.994;2023-03-31T18:21:05;4.87;;;1.05;;
75628;SDS011;64213;46.452;16.994;2023-03-31T18:24:12;9.27;;;1.52;;
75628;SDS011;64213;46.452;16.994;2023-03-31T18:27:15;8.77;;;1.20;;
75628;SDS011;64213;46.452;16.994;2023-03-31T18:30:18;7.12;;;1.40;;
75628;SDS011;64213;46.452;16.994;2023-03-31T18:33:23;9.07;;;2.13;;
75628;SDS011;64213;46.452;16.994;2023-03-31T18:36:28;8.30;;;1.37;;
75628;SDS011;64213;46.452;16.994;2023-03-31T18:39:33;7.10;;;1.55;;
75628;SDS011;64213;46.452;16.994;2023-03-31T18:42:36;6.50;;;1.60;;
75628;SDS011;64213;46.452;16.994;2023-03-31T18:45:39;6.60;;;1.90;;
75628;SDS011;64213;46.452;16.994;2023-03-31T18:48:43;6.13;;;1.30;;
75628;SDS011;64213;46.452;16.994;2023-03-31T18:51:48;6.45;;;1.60;;
75628;SDS011;64213;46.452;16.994;2023-03-31T18:54:51;6.55;;;1.87;;
75628;SDS011;64213;46.452;16.994;2023-03-31T18:57:57;7.55;;;1.70;;
75628;SDS011;64213;46.452;16.994;2023-03-31T19:01:00;8.80;;;1.98;;
75628;SDS011;64213;46.452;16.994;2023-03-31T19:04:03;6.37;;;1.73;;
75628;SDS011;64213;46.452;16.994;2023-03-31T19:07:08;7.72;;;1.98;;
75628;SDS011;64213;46.452;16.994;2023-03-31T19:10:10;7.75;;;2.28;;
75628;SDS011;64213;46.452;16.994;2023-03-31T19:13:15;8.27;;;2.25;;
75628;SDS011;64213;46.452;16.994;2023-03-31T19:16:18;8.07;;;2.70;;
75628;SDS011;64213;46.452;16.994;2023-03-31T19:19:21;9.03;;;2.83;;
75628;SDS011;64213;46.452;16.994;2023-03-31T19:22:26;9.27;;;2.80;;
75628;SDS011;64213;46.452;16.994;2023-03-31T19:25:31;7.78;;;2.40;;
75628;SDS011;64213;46.452;16.994;2023-03-31T19:28:33;9.85;;;3.22;;
75628;SDS011;64213;46.452;16.994;2023-03-31T19:31:36;11.55;;;3.28;;
75628;SDS011;64213;46.452;16.994;2023-03-31T19:34:39;10.33;;;2.87;;
75628;SDS011;64213;46.452;16.994;2023-03-31T19:37:43;9.70;;;3.35;;
75628;SDS011;64213;46.452;16.994;2023-03-31T19:40:46;13.93;;;3.35;;
75628;SDS011;64213;46.452;16.994;2023-03-31T19:43:50;12.70;;;4.50;;
75628;SDS011;64213;46.452;16.994;2023-03-31T19:46:55;7.95;;;2.97;;
75628;SDS011;64213;46.452;16.994;2023-03-31T19:49:59;6.70;;;2.00;;
75628;SDS011;64213;46.452;16.994;2023-03-31T19:53:03;8.30;;;2.40;;
75628;SDS011;64213;46.452;16.994;2023-03-31T19:56:14;5.55;;;1.48;;
75628;SDS011;64213;46.452;16.994;2023-03-31T19:59:21;5.05;;;1.10;;
75628;SDS011;64213;46.452;16.994;2023-03-31T20:02:25;8.80;;;1.55;;
75628;SDS011;64213;46.452;16.994;2023-03-31T20:05:30;8.87;;;1.67;;
75628;SDS011;64213;46.452;16.994;2023-03-31T20:08:34;7.18;;;1.50;;
75628;SDS011;64213;46.452;16.994;2023-03-31T20:11:38;9.85;;;1.15;;
75628;SDS011;64213;46.452;16.994;2023-03-31T20:14:43;6.35;;;1.30;;
75628;SDS011;64213;46.452;16.994;2023-03-31T20:17:47;4.47;;;0.98;;
75628;SDS011;64213;46.452;16.994;2023-03-31T20:20:50;6.23;;;1.07;;
75628;SDS011;64213;46.452;16.994;2023-03-31T20:23:53;6.87;;;1.40;;
75628;SDS011;64213;46.452;16.994;2023-03-31T20:26:58;7.05;;;1.85;;
75628;SDS011;64213;46.452;16.994;2023-03-31T20:30:00;8.82;;;2.90;;
75628;SDS011;64213;46.452;16.994;2023-03-31T20:33:05;10.00;;;2.58;;
75628;SDS011;64213;46.452;16.994;2023-03-31T20:36:09;5.63;;;1.17;;
75628;SDS011;64213;46.452;16.994;2023-03-31T20:39:23;6.22;;;1.80;;
75628;SDS011;64213;46.452;16.994;2023-03-31T20:42:25;9.10;;;1.90;;
75628;SDS011;64213;46.452;16.994;2023-03-31T20:45:30;5.53;;;1.20;;
75628;SDS011;64213;46.452;16.994;2023-03-31T20:48:34;8.07;;;1.33;;
75628;SDS011;64213;46.452;16.994;2023-03-31T20:51:39;5.47;;;1.17;;
75628;SDS011;64213;46.452;16.994;2023-03-31T20:54:42;6.10;;;1.20;;